Time;durP1;ratioP1;P1;durP2;ratioP2;P2;SDS_P1;SDS_P2;PMS_P1;PMS_P2;Temp;Humidity;BMP_temperature;BMP_pressure;BME280_temperature;BME280_humidity;BME280_pressure;Samples;Min_cycle;Max_cycle;Signal;HPM_P1;HPM_P2
2022/07/07 00:00:17;;;;;;;4.43;1.47;;;20.30;99.90;;;;;;5055269;28;20463;-67
2022/07/07 00:02:44;;;;;;;1.90;1.60;;;20.20;99.90;;;;;;5046705;28;20971;-68
2022/07/07 00:05:11;;;;;;;2.27;2.07;;;20.30;99.90;;;;;;5053739;28;20953;-68
2022/07/07 00:07:38;;;;;;;2.10;1.43;;;20.20;99.90;;;;;;5058162;28;20661;-68
2022/07/07 00:10:06;;;;;;;1.57;1.37;;;20.10;99.90;;;;;;5053696;28;20467;-68
2022/07/07 00:12:33;;;;;;;11.60;1.70;;;20.10;99.90;;;;;;5055189;28;20471;-68
2022/07/07 00:15:00;;;;;;;2.40;2.20;;;19.90;99.90;;;;;;5058451;28;20451;-68
2022/07/07 00:17:29;;;;;;;2.00;1.80;;;20.10;99.90;;;;;;5045839;28;20564;-68
2022/07/07 00:19:55;;;;;;;4.10;2.07;;;20.00;99.90;;;;;;5055907;28;21009;-68
2022/07/07 00:22:22;;;;;;;6.83;1.90;;;19.90;99.90;;;;;;5050763;28;20487;-70
2022/07/07 00:24:49;;;;;;;2.40;2.03;;;19.90;99.90;;;;;;5053580;28;20748;-69
2022/07/07 00:27:16;;;;;;;3.00;1.90;;;19.80;99.90;;;;;;5056870;28;20969;-70
2022/07/07 00:29:43;;;;;;;2.03;1.83;;;19.80;99.90;;;;;;5056323;28;22147;-67
2022/07/07 00:32:10;;;;;;;3.20;2.17;;;19.60;99.90;;;;;;5049590;28;20498;-70
2022/07/07 00:34:39;;;;;;;5.13;2.10;;;19.60;99.90;;;;;;5049906;28;20456;-71
2022/07/07 00:37:05;;;;;;;2.30;1.70;;;19.80;99.90;;;;;;5052874;28;20486;-70
2022/07/07 00:39:32;;;;;;;3.37;2.63;;;19.80;99.90;;;;;;5055342;28;20841;-69
2022/07/07 00:41:59;;;;;;;2.60;2.10;;;19.80;99.90;;;;;;5060127;28;20566;-68
2022/07/07 00:44:26;;;;;;;3.37;2.03;;;19.80;99.90;;;;;;5057628;28;20459;-68
2022/07/07 00:46:54;;;;;;;2.80;2.20;;;20.00;99.90;;;;;;5056792;28;20461;-68
2022/07/07 00:49:22;;;;;;;2.40;2.20;;;20.00;99.90;;;;;;5048283;28;20463;-68
2022/07/07 00:51:50;;;;;;;6.80;3.10;;;20.00;99.90;;;;;;5052460;28;20574;-68
2022/07/07 00:54:18;;;;;;;4.00;2.30;;;19.90;99.90;;;;;;5051495;28;20463;-68
2022/07/07 00:56:44;;;;;;;3.70;2.20;;;19.90;99.90;;;;;;5053687;28;20960;-68
2022/07/07 00:59:13;;;;;;;3.40;2.57;;;19.80;99.90;;;;;;5053431;28;20484;-69
2022/07/07 01:01:42;;;;;;;3.33;2.73;;;19.90;99.90;;;;;;5051258;28;20516;-68
2022/07/07 01:04:10;;;;;;;6.80;3.03;;;19.90;99.90;;;;;;5058801;28;20800;-69
2022/07/07 01:06:38;;;;;;;3.00;1.97;;;19.90;99.90;;;;;;5051829;28;20459;-68
2022/07/07 01:09:07;;;;;;;3.67;2.70;;;19.80;99.90;;;;;;5056181;28;20462;-68
2022/07/07 01:11:48;;;;;;;11.80;3.33;;;19.60;99.90;;;;;;5051079;28;20465;-68
2022/07/07 01:14:15;;;;;;;3.40;2.67;;;19.60;99.90;;;;;;5051729;28;20447;-69
2022/07/07 01:16:42;;;;;;;4.93;2.93;;;19.70;99.90;;;;;;5051070;28;20470;-69
2022/07/07 01:19:10;;;;;;;4.37;2.87;;;19.70;99.90;;;;;;5053588;28;20570;-69
2022/07/07 01:21:47;;;;;;;6.77;2.50;;;19.80;99.90;;;;;;5052014;28;20479;-68
2022/07/07 01:24:16;;;;;;;6.80;2.93;;;19.80;99.90;;;;;;5057801;28;20540;-68
2022/07/07 01:26:43;;;;;;;5.13;3.07;;;19.80;99.90;;;;;;5049364;28;20900;-69
2022/07/07 01:29:10;;;;;;;6.00;3.27;;;19.70;99.90;;;;;;5054579;28;20785;-69
2022/07/07 01:31:37;;;;;;;5.00;2.50;;;19.80;99.90;;;;;;5053052;28;20577;-69
2022/07/07 01:34:04;;;;;;;2.70;2.43;;;19.80;99.90;;;;;;5052999;28;20458;-69
2022/07/07 01:36:31;;;;;;;2.63;2.43;;;19.70;99.90;;;;;;5055448;28;20963;-68
2022/07/07 01:38:58;;;;;;;3.57;2.50;;;19.80;99.90;;;;;;5048466;28;20483;-68
2022/07/07 01:41:26;;;;;;;4.20;2.70;;;19.80;99.90;;;;;;5050234;28;21165;-69
2022/07/07 01:43:53;;;;;;;4.33;2.60;;;20.00;99.90;;;;;;5055227;28;21006;-69
2022/07/07 01:46:20;;;;;;;2.50;2.30;;;20.00;99.90;;;;;;5052639;28;20482;-68
2022/07/07 01:48:47;;;;;;;5.27;2.60;;;20.00;99.90;;;;;;5052049;28;20556;-68
2022/07/07 01:51:13;;;;;;;11.03;3.17;;;19.90;99.90;;;;;;5052973;28;20474;-68
2022/07/07 01:53:40;;;;;;;6.37;2.40;;;20.00;99.90;;;;;;5055912;28;20555;-69
2022/07/07 01:56:08;;;;;;;2.50;2.13;;;20.00;99.90;;;;;;5058747;28;20451;-68
2022/07/07 01:58:36;;;;;;;3.60;2.30;;;19.90;99.90;;;;;;5052012;28;20483;-68
2022/07/07 02:01:03;;;;;;;2.53;2.33;;;19.80;99.90;;;;;;5048648;28;20484;-68
2022/07/07 02:03:31;;;;;;;4.87;2.77;;;19.80;99.90;;;;;;5051574;28;20586;-68
2022/07/07 02:05:58;;;;;;;3.30;1.77;;;19.80;99.90;;;;;;5048826;28;20451;-69
2022/07/07 02:08:25;;;;;;;1.87;1.60;;;19.70;99.90;;;;;;5053221;28;20464;-70
2022/07/07 02:13:37;;;;;;;4.97;2.40;;;19.80;99.90;;;;;;5057584;28;20469;-69
2022/07/07 02:16:06;;;;;;;2.53;1.70;;;19.90;99.90;;;;;;5053345;28;20787;-68
2022/07/07 02:18:36;;;;;;;3.20;2.50;;;19.90;99.90;;;;;;5058017;28;20489;-68
2022/07/07 02:21:03;;;;;;;3.30;3.00;;;19.90;99.90;;;;;;5045792;28;20500;-68
2022/07/07 02:23:30;;;;;;;6.30;2.77;;;19.80;99.90;;;;;;5049005;28;20983;-68
2022/07/07 02:25:57;;;;;;;2.20;2.00;;;19.80;99.90;;;;;;5054298;28;20443;-68
2022/07/07 02:28:24;;;;;;;8.30;2.33;;;19.80;99.90;;;;;;5056211;28;20528;-69
2022/07/07 02:30:52;;;;;;;3.80;2.33;;;19.80;99.90;;;;;;5048583;28;20682;-69
2022/07/07 02:33:20;;;;;;;4.63;2.57;;;19.60;99.90;;;;;;5054662;28;20471;-69
2022/07/07 02:35:48;;;;;;;3.10;2.77;;;19.50;99.90;;;;;;5055824;28;20483;-68
2022/07/07 02:38:15;;;;;;;3.90;3.07;;;19.60;99.90;;;;;;5037599;28;20482;-69
2022/07/07 02:40:42;;;;;;;5.03;2.73;;;19.50;99.90;;;;;;5052303;28;20495;-68
2022/07/07 02:43:12;;;;;;;5.47;3.40;;;19.60;99.90;;;;;;5047714;28;21089;-69
2022/07/07 02:45:39;;;;;;;3.83;3.17;;;19.50;99.90;;;;;;5048164;28;20574;-68
2022/07/07 02:48:08;;;;;;;4.77;3.20;;;19.40;99.90;;;;;;5054337;28;20463;-69
2022/07/07 02:50:35;;;;;;;5.47;2.77;;;19.50;99.90;;;;;;5051757;28;21253;-68
2022/07/07 02:53:02;;;;;;;4.50;3.03;;;19.50;99.90;;;;;;5045525;28;20546;-68
2022/07/07 02:55:30;;;;;;;4.67;3.90;;;19.40;99.90;;;;;;5044394;28;20702;-68
2022/07/07 02:57:57;;;;;;;4.60;4.07;;;19.30;99.90;;;;;;5038238;28;20648;-68
2022/07/07 03:00:24;;;;;;;4.77;3.30;;;19.30;99.90;;;;;;5045200;28;20467;-69
2022/07/07 03:02:51;;;;;;;5.60;3.17;;;19.40;99.90;;;;;;5047921;28;20991;-69
2022/07/07 03:05:19;;;;;;;4.93;3.13;;;19.40;99.90;;;;;;5046250;28;20448;-68
2022/07/07 03:07:46;;;;;;;8.73;4.73;;;19.30;99.90;;;;;;5037532;28;20653;-69
2022/07/07 03:10:13;;;;;;;6.93;4.13;;;19.20;99.90;;;;;;5039818;28;20456;-70
2022/07/07 03:12:40;;;;;;;4.20;3.70;;;19.30;99.90;;;;;;5045515;28;20468;-70
2022/07/07 03:15:08;;;;;;;10.83;4.33;;;19.30;99.90;;;;;;5037902;28;20462;-70
2022/07/07 03:17:35;;;;;;;5.23;3.27;;;19.30;99.90;;;;;;5049976;28;20455;-70
2022/07/07 03:20:02;;;;;;;6.10;4.07;;;19.10;99.90;;;;;;5045666;28;20459;-68
2022/07/07 03:22:31;;;;;;;4.00;3.30;;;19.00;99.90;;;;;;5039210;28;20866;-69
2022/07/07 03:24:58;;;;;;;7.20;3.53;;;18.70;99.90;;;;;;5049641;28;20460;-68
2022/07/07 03:27:25;;;;;;;4.47;3.47;;;18.50;99.90;;;;;;5047445;28;20955;-68
2022/07/07 03:29:52;;;;;;;5.87;3.80;;;18.50;99.90;;;;;;5052693;28;20460;-68
2022/07/07 03:32:19;;;;;;;4.70;3.90;;;18.60;99.90;;;;;;5050818;28;20548;-68
2022/07/07 03:34:45;;;;;;;8.53;3.80;;;18.70;99.90;;;;;;5052013;28;20466;-68
2022/07/07 03:37:12;;;;;;;6.77;4.47;;;18.80;99.90;;;;;;5062404;28;20459;-68
2022/07/07 03:39:41;;;;;;;9.43;4.00;;;18.90;99.90;;;;;;5052078;28;20522;-68
2022/07/07 03:42:08;;;;;;;6.37;4.50;;;18.70;99.90;;;;;;5053485;28;20490;-68
2022/07/07 03:44:35;;;;;;;8.40;5.77;;;18.50;99.90;;;;;;5046007;28;20463;-68
2022/07/07 03:47:03;;;;;;;7.17;4.37;;;18.30;99.90;;;;;;5051720;28;20469;-68
2022/07/07 03:49:30;;;;;;;7.47;4.60;;;18.30;99.90;;;;;;5054348;28;20892;-68
2022/07/07 03:51:58;;;;;;;6.60;3.20;;;18.10;99.90;;;;;;5060930;28;20474;-68
2022/07/07 03:54:25;;;;;;;9.50;6.00;;;18.10;99.90;;;;;;5062781;28;20820;-68
2022/07/07 03:56:53;;;;;;;11.13;5.33;;;18.10;99.90;;;;;;5059957;28;20758;-69
2022/07/07 03:59:20;;;;;;;6.30;4.67;;;18.10;99.90;;;;;;5054572;28;20486;-68
2022/07/07 04:01:46;;;;;;;9.43;5.10;;;18.10;99.90;;;;;;5055830;28;20514;-69
2022/07/07 04:04:14;;;;;;;7.63;4.70;;;18.20;99.90;;;;;;5050775;28;20459;-69
2022/07/07 04:06:41;;;;;;;8.83;5.47;;;18.30;99.90;;;;;;5052895;28;20563;-69
2022/07/07 04:09:08;;;;;;;7.30;5.23;;;18.20;99.90;;;;;;5053268;28;20473;-69
2022/07/07 04:11:35;;;;;;;7.57;5.90;;;18.20;99.90;;;;;;5051383;28;20871;-69
2022/07/07 04:14:04;;;;;;;10.20;5.30;;;18.30;99.90;;;;;;5050140;28;20603;-69
2022/07/07 04:16:31;;;;;;;4.77;4.27;;;18.30;99.90;;;;;;5045908;28;21160;-70
2022/07/07 04:18:58;;;;;;;8.40;5.20;;;18.30;99.90;;;;;;5048371;28;20489;-69
2022/07/07 04:21:25;;;;;;;5.67;5.07;;;18.30;99.90;;;;;;5081908;23;20507;-70
2022/07/07 04:23:52;;;;;;;7.77;5.53;;;18.10;99.90;;;;;;5046675;28;20459;-70
2022/07/07 04:26:19;;;;;;;6.70;5.87;;;18.10;99.90;;;;;;5047235;28;20463;-70
2022/07/07 04:28:45;;;;;;;13.57;5.80;;;18.20;99.90;;;;;;5049767;28;21009;-70
2022/07/07 04:31:14;;;;;;;6.97;5.10;;;18.20;99.90;;;;;;5048686;28;20486;-70
2022/07/07 04:33:40;;;;;;;5.50;3.83;;;18.20;99.90;;;;;;5045302;28;20470;-70
2022/07/07 04:36:09;;;;;;;17.70;4.90;;;18.30;99.90;;;;;;5050760;28;20457;-70
2022/07/07 04:38:36;;;;;;;5.17;4.03;;;18.30;99.90;;;;;;5042793;28;20849;-70
2022/07/07 04:41:03;;;;;;;10.37;7.20;;;18.30;99.90;;;;;;5045448;28;20465;-69
2022/07/07 04:43:29;;;;;;;8.47;5.13;;;18.40;99.90;;;;;;5047512;28;20447;-70
2022/07/07 04:45:56;;;;;;;7.37;4.33;;;18.30;99.90;;;;;;5041733;28;20487;-70
2022/07/07 04:48:25;;;;;;;7.83;5.33;;;18.30;99.90;;;;;;5061256;28;20452;-70
2022/07/07 04:50:51;;;;;;;7.23;5.00;;;18.40;99.90;;;;;;5046811;28;21154;-70
2022/07/07 04:53:19;;;;;;;6.87;5.23;;;18.40;99.90;;;;;;5045235;28;20459;-70
2022/07/07 04:55:45;;;;;;;7.27;4.83;;;18.30;99.90;;;;;;5045169;28;20460;-70
2022/07/07 04:58:12;;;;;;;6.97;5.20;;;18.20;99.90;;;;;;5048204;28;20836;-70
2022/07/07 05:00:39;;;;;;;7.67;4.50;;;18.10;99.90;;;;;;5051845;28;20467;-70
2022/07/07 05:03:06;;;;;;;8.17;4.50;;;18.00;99.90;;;;;;5055145;28;20494;-71
2022/07/07 05:05:34;;;;;;;9.93;5.50;;;18.00;99.90;;;;;;5059079;28;20830;-70
2022/07/07 05:08:01;;;;;;;9.77;6.03;;;17.90;99.90;;;;;;5056122;28;20462;-69
2022/07/07 05:10:28;;;;;;;5.97;4.67;;;17.80;99.90;;;;;;5059452;28;20459;-70
2022/07/07 05:12:55;;;;;;;7.77;5.80;;;17.70;99.90;;;;;;5055042;28;21023;-69
2022/07/07 05:15:21;;;;;;;6.73;4.70;;;17.80;99.90;;;;;;5059215;28;20808;-70
2022/07/07 05:17:52;;;;;;;8.40;4.93;;;17.80;99.90;;;;;;5058476;28;20456;-74
2022/07/07 05:20:19;;;;;;;5.40;4.60;;;17.80;99.90;;;;;;5054242;28;20491;-69
2022/07/07 05:22:47;;;;;;;5.33;4.83;;;17.80;99.90;;;;;;5056873;28;20486;-69
2022/07/07 05:25:14;;;;;;;5.87;4.33;;;17.90;99.90;;;;;;5058342;28;20477;-70
2022/07/07 05:27:44;;;;;;;6.80;4.10;;;17.90;99.90;;;;;;5062316;28;20463;-69
2022/07/07 05:30:12;;;;;;;3.80;3.20;;;17.90;99.90;;;;;;5056855;28;20451;-70
2022/07/07 05:32:38;;;;;;;5.40;2.83;;;17.80;99.90;;;;;;5058767;28;20490;-68
2022/07/07 05:35:06;;;;;;;7.53;4.60;;;17.70;99.90;;;;;;5058134;28;20459;-70
2022/07/07 05:37:34;;;;;;;4.87;4.23;;;17.50;99.90;;;;;;5060195;28;20462;-70
2022/07/07 05:40:02;;;;;;;3.23;2.93;;;17.50;99.90;;;;;;5058215;28;20482;-70
2022/07/07 05:42:29;;;;;;;3.10;2.73;;;17.50;99.90;;;;;;5058497;28;20479;-70
2022/07/07 05:44:56;;;;;;;3.20;2.00;;;17.30;99.90;;;;;;5059950;28;20459;-69
2022/07/07 05:47:23;;;;;;;2.37;2.17;;;17.40;99.90;;;;;;5062292;28;20447;-69
2022/07/07 05:49:49;;;;;;;4.37;2.97;;;17.30;99.90;;;;;;5052674;28;20470;-69
2022/07/07 05:52:16;;;;;;;2.63;1.90;;;17.40;99.90;;;;;;5050976;28;20482;-70
2022/07/07 05:54:43;;;;;;;4.03;2.47;;;17.50;99.90;;;;;;5062360;28;21087;-70
2022/07/07 05:57:12;;;;;;;3.03;2.70;;;17.80;99.90;;;;;;5057086;28;20468;-70
2022/07/07 05:59:38;;;;;;;3.53;2.50;;;17.90;99.90;;;;;;5058021;28;20495;-69
2022/07/07 06:02:06;;;;;;;3.03;2.07;;;17.90;99.90;;;;;;5059528;28;20471;-70
2022/07/07 06:04:33;;;;;;;3.50;3.20;;;17.80;99.90;;;;;;5058295;28;20463;-70
2022/07/07 06:06:59;;;;;;;2.10;1.60;;;17.80;99.90;;;;;;5049939;28;20470;-70
2022/07/07 06:09:26;;;;;;;2.33;2.03;;;17.80;99.90;;;;;;5056830;28;20460;-69
2022/07/07 06:11:53;;;;;;;2.40;2.20;;;18.00;99.90;;;;;;5061493;28;20472;-70
2022/07/07 06:14:22;;;;;;;2.80;1.53;;;17.90;99.90;;;;;;5052096;28;20467;-69
2022/07/07 06:16:48;;;;;;;2.30;2.10;;;17.90;99.90;;;;;;5054953;28;20492;-69
2022/07/07 06:19:15;;;;;;;3.00;2.30;;;17.80;99.90;;;;;;5057690;28;20828;-69
2022/07/07 06:21:43;;;;;;;2.07;1.90;;;17.80;99.90;;;;;;5055147;28;20878;-69
2022/07/07 06:24:10;;;;;;;5.70;3.13;;;17.80;99.90;;;;;;5060280;28;20443;-70
2022/07/07 06:26:37;;;;;;;6.83;2.63;;;17.70;99.90;;;;;;5058914;28;20456;-69
2022/07/07 06:29:04;;;;;;;2.90;2.20;;;17.70;99.90;;;;;;5060240;28;20874;-69
2022/07/07 06:31:32;;;;;;;2.73;2.30;;;17.60;99.90;;;;;;5059235;28;20479;-69
2022/07/07 06:33:59;;;;;;;4.40;3.10;;;17.80;99.90;;;;;;5057131;28;20507;-70
2022/07/07 06:36:26;;;;;;;2.97;2.67;;;17.90;99.90;;;;;;5062221;28;20473;-69
2022/07/07 06:38:53;;;;;;;2.83;2.50;;;18.10;99.90;;;;;;5056034;28;20466;-69
2022/07/07 06:41:22;;;;;;;2.80;2.20;;;18.20;99.90;;;;;;5061336;28;20493;-70
2022/07/07 06:43:48;;;;;;;4.10;1.77;;;18.30;99.90;;;;;;5060237;28;20458;-70
2022/07/07 06:46:15;;;;;;;3.30;1.70;;;18.20;99.90;;;;;;5062616;28;20450;-70
2022/07/07 06:48:44;;;;;;;1.80;1.67;;;18.00;99.90;;;;;;5060168;28;20845;-69
2022/07/07 06:51:11;;;;;;;7.40;2.87;;;17.90;99.90;;;;;;5055298;28;20456;-69
2022/07/07 06:53:38;;;;;;;2.17;1.93;;;18.00;99.90;;;;;;5052403;28;20450;-69
2022/07/07 06:56:05;;;;;;;2.43;1.60;;;18.00;99.90;;;;;;5053006;28;20538;-70
2022/07/07 06:58:31;;;;;;;1.77;1.53;;;17.90;99.90;;;;;;5056815;28;20467;-69
2022/07/07 07:00:58;;;;;;;1.70;1.60;;;17.80;99.90;;;;;;5054189;28;20501;-70
2022/07/07 07:03:25;;;;;;;2.23;1.53;;;17.80;99.90;;;;;;5056908;28;20447;-70
2022/07/07 07:05:54;;;;;;;3.47;2.20;;;17.80;99.90;;;;;;5053620;28;20480;-70
2022/07/07 07:08:21;;;;;;;2.03;1.83;;;18.10;99.90;;;;;;5060868;28;21050;-70
2022/07/07 07:10:48;;;;;;;1.73;1.30;;;18.10;99.90;;;;;;5061500;28;20448;-70
2022/07/07 07:13:14;;;;;;;1.40;1.10;;;18.00;99.90;;;;;;5057170;28;20958;-70
2022/07/07 07:15:41;;;;;;;3.20;1.73;;;17.70;99.90;;;;;;5060684;28;20455;-72
2022/07/07 07:18:08;;;;;;;1.23;1.03;;;17.30;99.90;;;;;;5061793;28;20887;-71
2022/07/07 07:20:35;;;;;;;3.90;1.57;;;17.40;99.90;;;;;;5056260;28;20910;-71
2022/07/07 07:23:03;;;;;;;1.20;1.00;;;17.40;99.90;;;;;;5060679;28;20898;-70
2022/07/07 07:25:30;;;;;;;2.53;1.07;;;17.20;99.90;;;;;;5063141;28;20976;-71
2022/07/07 07:27:57;;;;;;;3.23;1.30;;;17.20;99.90;;;;;;5057286;28;20831;-68
2022/07/07 07:30:24;;;;;;;1.67;1.03;;;17.30;99.90;;;;;;5058479;28;20451;-69
2022/07/07 07:32:51;;;;;;;1.53;1.43;;;17.50;99.90;;;;;;5058988;28;20499;-70
2022/07/07 07:35:18;;;;;;;2.23;1.20;;;17.80;99.90;;;;;;5058358;28;21276;-69
2022/07/07 07:37:45;;;;;;;4.13;1.20;;;18.10;99.90;;;;;;5061457;28;20455;-69
2022/07/07 07:40:13;;;;;;;1.97;1.10;;;18.20;99.90;;;;;;5062198;28;20832;-69
2022/07/07 07:42:40;;;;;;;1.20;1.00;;;18.20;99.90;;;;;;5061238;28;20489;-69
2022/07/07 07:45:12;;;;;;;1.67;1.10;;;18.40;99.90;;;;;;5061453;28;20815;-69
2022/07/07 07:47:40;;;;;;;2.60;1.30;;;18.70;99.90;;;;;;5063616;28;20440;-70
2022/07/07 07:50:08;;;;;;;1.40;1.07;;;18.90;99.90;;;;;;5051001;28;20974;-69
2022/07/07 07:52:34;;;;;;;1.73;1.10;;;18.90;99.90;;;;;;5060204;28;20471;-69
2022/07/07 07:55:01;;;;;;;2.10;1.17;;;18.50;99.90;;;;;;5061041;28;20961;-69
2022/07/07 07:57:30;;;;;;;2.87;1.43;;;18.80;99.90;;;;;;5055030;28;20571;-69
2022/07/07 07:59:57;;;;;;;6.00;1.17;;;19.00;99.90;;;;;;5057883;28;20537;-69
2022/07/07 08:02:24;;;;;;;1.30;1.20;;;18.80;99.90;;;;;;5056580;28;20478;-69
2022/07/07 08:04:51;;;;;;;2.60;1.20;;;18.60;99.90;;;;;;5058592;28;20455;-69
2022/07/07 08:07:18;;;;;;;2.50;0.93;;;18.40;99.90;;;;;;5057550;28;20462;-68
2022/07/07 08:09:45;;;;;;;1.60;1.00;;;18.20;99.90;;;;;;5058480;28;20459;-70
2022/07/07 08:12:12;;;;;;;1.83;1.00;;;18.10;99.90;;;;;;5059657;28;20856;-69
2022/07/07 08:14:40;;;;;;;1.87;1.10;;;18.20;99.90;;;;;;5058754;28;20855;-70
2022/07/07 08:17:07;;;;;;;2.00;1.27;;;18.10;99.90;;;;;;5063557;28;20443;-69
2022/07/07 08:19:34;;;;;;;1.50;0.80;;;17.90;99.90;;;;;;5060067;28;20471;-69
2022/07/07 08:22:01;;;;;;;1.50;0.97;;;17.80;99.90;;;;;;5052852;28;20498;-70
2022/07/07 08:24:28;;;;;;;3.00;1.30;;;17.70;99.90;;;;;;5061845;28;20459;-69
2022/07/07 08:26:55;;;;;;;3.13;1.17;;;17.70;99.90;;;;;;5057831;28;20585;-70
2022/07/07 08:29:22;;;;;;;1.63;1.00;;;18.00;99.90;;;;;;5060451;28;20776;-69
2022/07/07 08:31:50;;;;;;;1.57;1.03;;;18.10;99.90;;;;;;5048754;28;20859;-70
2022/07/07 08:34:17;;;;;;;1.27;0.90;;;18.20;99.90;;;;;;5053972;28;20455;-70
2022/07/07 08:36:44;;;;;;;1.50;1.30;;;18.40;99.90;;;;;;5058018;28;20834;-69
2022/07/07 08:39:10;;;;;;;1.70;1.00;;;18.80;99.90;;;;;;5054915;28;20455;-70
2022/07/07 08:41:38;;;;;;;4.80;1.00;;;18.50;99.90;;;;;;5053522;28;20867;-70
2022/07/07 08:44:05;;;;;;;2.83;1.27;;;18.60;99.90;;;;;;5057405;28;20471;-69
2022/07/07 08:46:32;;;;;;;1.97;1.30;;;18.70;99.90;;;;;;5059025;28;20463;-70
2022/07/07 08:49:00;;;;;;;9.13;1.87;;;19.00;99.90;;;;;;5057855;28;20685;-70
2022/07/07 08:51:27;;;;;;;2.13;1.10;;;19.50;99.90;;;;;;5057121;28;20503;-69
2022/07/07 08:53:54;;;;;;;1.67;1.23;;;20.10;99.90;;;;;;5063080;28;20553;-70
2022/07/07 08:56:22;;;;;;;1.10;0.80;;;20.40;99.90;;;;;;5059759;28;20498;-70
2022/07/07 08:58:50;;;;;;;2.70;1.67;;;21.30;99.90;;;;;;5049920;28;20464;-71
2022/07/07 09:01:17;;;;;;;1.30;1.20;;;22.00;99.90;;;;;;5056923;28;20490;-69
2022/07/07 09:03:43;;;;;;;2.53;1.60;;;22.20;99.90;;;;;;5060907;28;20464;-72
2022/07/07 09:06:13;;;;;;;3.40;1.20;;;21.80;99.90;;;;;;5057537;28;20454;-71
2022/07/07 09:08:40;;;;;;;1.50;1.20;;;20.70;99.90;;;;;;5060345;28;20446;-71
2022/07/07 09:11:09;;;;;;;1.67;1.23;;;19.80;99.90;;;;;;5059890;28;20435;-70
2022/07/07 09:13:36;;;;;;;3.40;1.43;;;19.30;99.90;;;;;;5059702;28;20479;-69
2022/07/07 09:16:05;;;;;;;1.30;0.97;;;18.90;99.90;;;;;;5057816;28;20455;-70
2022/07/07 09:18:33;;;;;;;2.43;1.03;;;19.10;99.90;;;;;;5060553;28;20478;-69
2022/07/07 09:21:02;;;;;;;1.97;1.60;;;19.20;99.90;;;;;;5059361;28;20523;-70
2022/07/07 09:23:31;;;;;;;2.33;1.27;;;19.40;99.90;;;;;;5058459;28;20469;-69
2022/07/07 09:25:58;;;;;;;2.37;1.70;;;19.90;99.90;;;;;;5061875;28;20936;-69
2022/07/07 09:28:26;;;;;;;4.60;1.47;;;20.20;99.90;;;;;;5058497;28;20468;-70
2022/07/07 09:30:54;;;;;;;6.63;2.00;;;20.60;99.90;;;;;;5055653;28;20459;-70
2022/07/07 09:33:22;;;;;;;1.30;1.10;;;21.10;99.90;;;;;;5053979;28;20459;-70
2022/07/07 09:38:43;;;;;;;2.33;0.93;;;20.80;99.90;;;;;;5016979;28;20465;-70
2022/07/07 09:41:13;;;;;;;1.73;1.30;;;20.50;99.90;;;;;;5056822;28;20483;-70
2022/07/07 09:43:46;;;;;;;3.73;1.20;;;20.40;99.90;;;;;;5049948;28;20472;-69
2022/07/07 09:46:18;;;;;;;1.93;1.00;;;20.70;99.90;;;;;;5057110;28;20463;-70
2022/07/07 09:48:47;;;;;;;2.60;1.33;;;21.00;99.90;;;;;;5058570;28;20468;-70
2022/07/07 09:51:20;;;;;;;3.50;1.03;;;21.60;99.90;;;;;;5059230;28;20854;-69
2022/07/07 09:54:04;;;;;;;2.37;1.10;;;22.20;99.90;;;;;;5055387;28;20800;-69
2022/07/07 09:56:33;;;;;;;1.30;1.10;;;23.00;99.90;;;;;;5056459;28;20604;-70
2022/07/07 09:59:02;;;;;;;3.37;1.13;;;23.80;99.90;;;;;;5054089;28;20974;-70
2022/07/07 10:01:31;;;;;;;1.40;1.00;;;24.50;99.90;;;;;;5059690;28;20851;-70
2022/07/07 10:04:00;;;;;;;1.40;0.93;;;23.80;99.90;;;;;;5055894;28;20463;-70
2022/07/07 10:06:29;;;;;;;3.00;1.30;;;23.40;99.90;;;;;;5055065;28;20489;-69
2022/07/07 10:08:58;;;;;;;2.50;1.43;;;22.60;99.90;;;;;;5059346;28;20486;-70
2022/07/07 10:11:36;;;;;;;2.30;1.10;;;21.70;99.90;;;;;;5061718;28;20464;-69
2022/07/07 10:14:13;;;;;;;2.70;1.20;;;20.90;99.90;;;;;;5053941;28;20864;-72
2022/07/07 10:16:42;;;;;;;1.40;0.90;;;20.00;99.90;;;;;;5054174;28;20464;-70
2022/07/07 10:19:11;;;;;;;1.20;0.87;;;19.50;99.90;;;;;;5054464;28;20455;-70
2022/07/07 10:21:43;;;;;;;1.10;0.70;;;19.30;99.90;;;;;;5055824;28;20561;-72
2022/07/07 10:24:12;;;;;;;3.83;0.90;;;19.40;99.90;;;;;;5054374;22;20492;-70
2022/07/07 10:26:40;;;;;;;1.20;0.90;;;19.80;99.90;;;;;;5042015;28;20443;-70
2022/07/07 10:29:08;;;;;;;2.33;1.13;;;20.20;99.90;;;;;;5033816;28;20460;-71
2022/07/07 10:31:36;;;;;;;2.13;1.23;;;21.20;99.90;;;;;;5033387;28;20460;-70
2022/07/07 10:34:05;;;;;;;1.30;0.80;;;22.50;99.90;;;;;;5033833;28;20480;-70
2022/07/07 10:37:00;;;;;;;1.63;1.03;;;23.20;99.90;;;;;;5033327;28;20467;-71
2022/07/07 10:39:32;;;;;;;4.70;0.87;;;23.40;99.90;;;;;;5030827;28;20509;-70
2022/07/07 10:42:06;;;;;;;1.50;0.90;;;23.90;99.90;;;;;;5036458;28;20480;-70
2022/07/07 10:44:34;;;;;;;1.87;1.07;;;23.80;99.90;;;;;;5032133;28;21058;-70
2022/07/07 10:47:04;;;;;;;2.53;1.20;;;23.30;99.90;;;;;;5034796;28;20500;-70
2022/07/07 10:49:39;;;;;;;1.60;1.10;;;22.60;99.90;;;;;;5036718;28;20566;-70
2022/07/07 10:52:11;;;;;;;2.10;1.20;;;21.90;99.90;;;;;;5036289;28;20999;-70
2022/07/07 10:54:41;;;;;;;1.10;0.87;;;21.20;99.90;;;;;;5041122;28;20611;-70
2022/07/07 10:57:13;;;;;;;1.20;0.90;;;21.00;99.90;;;;;;5034274;28;20471;-69
2022/07/07 11:00:08;;;;;;;1.40;1.00;;;20.80;99.90;;;;;;5034057;28;20466;-70
2022/07/07 11:02:37;;;;;;;1.83;1.10;;;20.50;99.90;;;;;;5038867;28;20486;-70
2022/07/07 11:05:24;;;;;;;1.17;0.77;;;20.50;99.90;;;;;;5040584;28;20471;-71
2022/07/07 11:08:12;;;;;;;1.70;1.00;;;20.40;99.90;;;;;;5044700;28;20465;-70
2022/07/07 11:10:50;;;;;;;1.50;0.90;;;20.10;99.90;;;;;;5047485;28;20458;-69
2022/07/07 11:13:18;;;;;;;3.97;1.30;;;20.20;99.90;;;;;;5045034;28;20582;-70
2022/07/07 11:15:45;;;;;;;3.93;1.00;;;20.30;99.90;;;;;;5041961;28;20456;-69
2022/07/07 11:18:14;;;;;;;1.90;1.13;;;20.60;99.90;;;;;;5037769;28;20495;-70
2022/07/07 11:20:58;;;;;;;1.20;0.90;;;21.70;99.90;;;;;;5034250;28;20492;-70
2022/07/07 11:23:28;;;;;;;1.93;1.20;;;22.90;99.90;;;;;;5034577;28;20848;-70
2022/07/07 11:25:58;;;;;;;1.63;1.20;;;23.40;99.90;;;;;;5031335;28;20456;-70
2022/07/07 11:28:26;;;;;;;3.57;1.43;;;22.90;99.90;;;;;;5029545;28;20461;-71
2022/07/07 11:31:04;;;;;;;1.10;0.90;;;22.90;99.90;;;;;;5037487;28;20563;-71
2022/07/07 11:33:31;;;;;;;1.30;1.00;;;22.30;99.90;;;;;;5032832;28;20488;-70
2022/07/07 11:35:58;;;;;;;4.07;1.20;;;21.50;99.90;;;;;;5036601;28;20441;-70
2022/07/07 11:38:28;;;;;;;1.07;0.77;;;20.90;99.90;;;;;;5033712;28;20456;-71
2022/07/07 11:40:57;;;;;;;2.50;1.20;;;20.60;99.90;;;;;;5035178;28;20539;-70
2022/07/07 11:43:25;;;;;;;1.10;0.90;;;20.30;99.90;;;;;;5033199;28;21131;-70
2022/07/07 11:45:52;;;;;;;2.70;1.10;;;20.30;99.90;;;;;;5025416;28;20468;-69
2022/07/07 11:48:19;;;;;;;1.80;1.27;;;20.20;99.90;;;;;;5029326;28;20786;-70
2022/07/07 11:50:47;;;;;;;1.50;0.90;;;20.20;99.90;;;;;;5037311;28;20455;-69
2022/07/07 11:53:14;;;;;;;1.30;0.90;;;20.20;99.90;;;;;;5038858;28;20502;-69
2022/07/07 11:55:42;;;;;;;2.27;1.50;;;20.30;99.90;;;;;;5039265;28;20444;-69
2022/07/07 11:58:12;;;;;;;3.03;1.27;;;20.50;99.90;;;;;;5037195;28;20500;-69
2022/07/07 12:00:41;;;;;;;2.43;1.50;;;20.30;99.90;;;;;;5039423;28;20927;-70
2022/07/07 12:03:09;;;;;;;3.10;0.90;;;20.50;99.90;;;;;;5031344;28;20855;-72
2022/07/07 12:05:38;;;;;;;1.97;0.90;;;20.90;99.90;;;;;;5034922;28;20465;-71
2022/07/07 12:08:07;;;;;;;2.47;1.00;;;21.00;99.90;;;;;;5027256;28;20553;-71
2022/07/07 12:10:35;;;;;;;1.30;0.93;;;21.20;99.90;;;;;;5038504;28;20574;-71
2022/07/07 12:13:04;;;;;;;4.73;1.10;;;21.20;99.90;;;;;;5034628;28;21001;-71
2022/07/07 12:15:35;;;;;;;1.17;0.90;;;21.60;99.90;;;;;;5035064;28;20498;-70
2022/07/07 12:18:02;;;;;;;1.20;0.87;;;21.40;99.90;;;;;;5039775;28;20526;-71
2022/07/07 12:20:30;;;;;;;2.60;1.30;;;21.60;99.90;;;;;;5041626;28;20753;-70
2022/07/07 12:22:59;;;;;;;1.40;0.93;;;21.70;99.90;;;;;;5029644;28;20493;-69
2022/07/07 12:25:27;;;;;;;1.53;1.10;;;21.60;99.90;;;;;;5034978;28;20453;-70
2022/07/07 12:27:58;;;;;;;1.70;1.27;;;21.60;99.90;;;;;;5037324;28;20453;-70
2022/07/07 12:30:26;;;;;;;1.40;1.03;;;21.20;99.90;;;;;;5035233;28;20440;-69
2022/07/07 12:32:55;;;;;;;1.20;1.00;;;21.00;99.90;;;;;;5035228;28;20472;-69
2022/07/07 12:35:31;;;;;;;1.43;1.20;;;20.60;99.90;;;;;;5040417;28;20567;-70
2022/07/07 12:38:00;;;;;;;1.47;1.10;;;20.30;99.90;;;;;;5031616;28;20547;-70
2022/07/07 12:40:28;;;;;;;1.97;1.23;;;20.40;99.90;;;;;;5038255;28;20457;-71
2022/07/07 12:42:56;;;;;;;2.77;1.30;;;20.30;99.90;;;;;;5033119;28;20489;-71
2022/07/07 12:45:23;;;;;;;1.20;1.10;;;20.60;99.90;;;;;;5035930;28;20451;-71
2022/07/07 12:47:51;;;;;;;1.63;1.47;;;20.80;99.90;;;;;;5039043;28;20462;-71
2022/07/07 12:50:20;;;;;;;1.57;1.07;;;21.00;99.90;;;;;;5027408;28;20560;-71
2022/07/07 12:52:59;;;;;;;1.50;0.90;;;21.00;99.90;;;;;;5034983;28;20473;-72
2022/07/07 12:55:34;;;;;;;2.20;0.90;;;21.10;99.90;;;;;;5033608;28;20459;-71